createdAt,value
2018-09-27T00:03:33.065Z,99.90
2018-09-27T00:08:36.591Z,99.90
2018-09-27T00:13:40.294Z,99.00
2018-09-27T00:18:43.803Z,98.90
2018-09-27T00:23:47.353Z,99.30
2018-09-27T00:28:50.958Z,99.90
2018-09-27T00:33:54.702Z,99.90
2018-09-27T00:38:59.392Z,99.90
2018-09-27T00:44:02.961Z,99.90
2018-09-27T00:49:06.516Z,99.90
2018-09-27T00:54:10.254Z,99.60
2018-09-27T00:59:13.956Z,99.50
2018-09-27T01:04:17.523Z,99.60
2018-09-27T01:09:21.294Z,99.90
2018-09-27T01:14:24.854Z,99.70
2018-09-27T01:19:28.421Z,99.70
2018-09-27T01:24:35.810Z,99.10
2018-09-27T01:29:39.421Z,98.10
2018-09-27T01:34:46.419Z,99.20
2018-09-27T01:39:50.068Z,99.10
2018-09-27T01:44:54.690Z,99.90
2018-09-27T01:49:58.245Z,99.00
2018-09-27T01:55:01.772Z,99.40
2018-09-27T02:00:05.555Z,99.90
2018-09-27T02:05:09.092Z,99.80
2018-09-27T02:10:12.630Z,99.90
2018-09-27T02:15:16.361Z,99.90
2018-09-27T02:20:19.930Z,99.90
2018-09-27T02:25:23.467Z,99.70
2018-09-27T02:30:27.030Z,99.20
2018-09-27T02:35:30.558Z,99.10
2018-09-27T02:40:34.122Z,99.40
2018-09-27T02:45:38.794Z,98.60
2018-09-27T02:50:42.382Z,99.20
2018-09-27T02:55:45.973Z,98.90
2018-09-27T03:00:49.654Z,99.90
2018-09-27T03:05:53.282Z,99.90
2018-09-27T03:10:56.953Z,99.10
2018-09-27T03:16:00.501Z,98.60
2018-09-27T03:21:04.257Z,99.30
2018-09-27T03:26:07.815Z,99.80
2018-09-27T03:31:11.468Z,99.90
2018-09-27T03:36:15.228Z,99.90
2018-09-27T03:41:18.811Z,99.60
2018-09-27T03:46:22.389Z,99.90
2018-09-27T03:51:25.922Z,99.40
2018-09-27T03:56:31.690Z,99.90
2018-09-27T04:01:35.323Z,99.80
2018-09-27T04:06:38.886Z,98.90
2018-09-27T04:11:42.547Z,99.70
2018-09-27T04:16:46.130Z,98.70
2018-09-27T04:21:50.011Z,98.10
2018-09-27T04:26:53.655Z,97.90
2018-09-27T04:31:57.396Z,99.30
2018-09-27T04:37:00.978Z,99.80
2018-09-27T04:42:04.758Z,99.80
2018-09-27T04:47:08.649Z,99.90
2018-09-27T04:52:12.373Z,99.80
2018-09-27T04:57:16.108Z,99.10
2018-09-27T05:02:19.850Z,99.80
2018-09-27T05:07:23.464Z,99.70
2018-09-27T05:12:27.129Z,99.80
2018-09-27T05:17:30.747Z,99.90
2018-09-27T05:22:34.323Z,99.90
2018-09-27T05:27:38.010Z,99.90
2018-09-27T05:32:41.662Z,99.10
2018-09-27T05:37:45.347Z,98.30
2018-09-27T05:42:48.978Z,99.40
2018-09-27T05:47:52.704Z,99.30
2018-09-27T05:52:56.351Z,99.90
2018-09-27T05:57:59.907Z,99.90
2018-09-27T06:03:03.543Z,99.40
2018-09-27T06:08:07.268Z,99.70
2018-09-27T06:13:10.842Z,99.90
2018-09-27T06:18:14.915Z,99.90
2018-09-27T06:23:18.551Z,99.90
2018-09-27T06:28:22.194Z,99.90
2018-09-27T06:33:26.000Z,99.90
2018-09-27T06:38:29.786Z,99.90
2018-09-27T06:43:33.267Z,99.90
2018-09-27T06:48:36.817Z,99.90
2018-09-27T06:53:40.403Z,99.90
2018-09-27T06:58:44.070Z,99.90
2018-09-27T07:03:47.755Z,99.90
2018-09-27T07:08:51.507Z,99.90
2018-09-27T07:13:56.062Z,99.90
2018-09-27T07:19:01.683Z,99.90
2018-09-27T07:24:06.318Z,99.90
2018-09-27T07:29:10.047Z,99.90
2018-09-27T07:34:13.734Z,99.90
2018-09-27T07:39:19.202Z,99.90
2018-09-27T07:44:22.815Z,99.90
2018-09-27T07:49:26.372Z,99.90
2018-09-27T07:54:29.993Z,98.70
2018-09-27T07:59:33.725Z,99.10
2018-09-27T08:04:37.416Z,98.80
2018-09-27T08:09:41.042Z,97.90
2018-09-27T08:14:44.667Z,98.70
2018-09-27T08:19:48.438Z,95.40
2018-09-27T08:24:52.428Z,91.80
2018-09-27T08:29:56.000Z,89.00
2018-09-27T08:34:59.538Z,84.70
2018-09-27T08:40:04.173Z,81.90
2018-09-27T08:45:07.993Z,81.60
2018-09-27T08:50:12.559Z,77.10
2018-09-27T08:55:16.300Z,81.20
2018-09-27T09:00:19.948Z,81.80
2018-09-27T09:05:23.587Z,82.50
2018-09-27T09:10:27.482Z,79.90
2018-09-27T09:15:33.438Z,78.70
2018-09-27T09:20:37.206Z,76.70
2018-09-27T09:25:40.867Z,77.20
2018-09-27T09:30:44.443Z,76.10
2018-09-27T09:35:48.132Z,72.70
2018-09-27T09:40:51.687Z,66.70
2018-09-27T09:45:55.366Z,69.00
2018-09-27T09:50:59.098Z,62.20
2018-09-27T09:56:04.148Z,60.90
2018-09-27T10:01:14.446Z,59.10
2018-09-27T10:06:20.924Z,55.50
2018-09-27T10:11:24.579Z,62.10
2018-09-27T10:16:28.262Z,61.50
2018-09-27T10:21:31.963Z,61.60
2018-09-27T10:26:36.764Z,58.70
2018-09-27T10:31:41.700Z,56.30
2018-09-27T10:36:45.343Z,52.70
2018-09-27T10:41:48.904Z,50.40
2018-09-27T10:46:52.770Z,51.60
2018-09-27T10:51:56.694Z,51.40
2018-09-27T10:57:00.511Z,48.30
2018-09-27T11:02:04.145Z,50.60
2018-09-27T11:07:07.988Z,51.60
2018-09-27T11:12:11.626Z,54.50
2018-09-27T11:17:15.617Z,57.60
2018-09-27T11:22:21.478Z,56.60
2018-09-27T11:27:25.300Z,60.60
2018-09-27T11:32:33.974Z,59.60
2018-09-27T11:37:37.722Z,60.90
2018-09-27T11:42:41.470Z,58.50
2018-09-27T11:47:45.203Z,62.10
2018-09-27T11:52:48.872Z,62.80
2018-09-27T11:57:52.555Z,64.10
2018-09-27T12:02:57.663Z,61.80
2018-09-27T12:08:01.462Z,62.00
2018-09-27T12:13:05.199Z,61.10
2018-09-27T12:18:09.155Z,60.90
2018-09-27T12:23:12.899Z,59.50
2018-09-27T12:28:16.590Z,60.30
2018-09-27T12:33:22.302Z,57.20
2018-09-27T12:38:26.347Z,57.70
2018-09-27T12:43:30.193Z,58.30
2018-09-27T12:48:34.847Z,56.90
2018-09-27T12:53:38.533Z,56.30
2018-09-27T12:58:45.346Z,57.10
2018-09-27T13:03:48.939Z,56.40
2018-09-27T13:08:52.842Z,57.10
2018-09-27T13:13:56.648Z,57.30
2018-09-27T13:19:01.264Z,56.30
2018-09-27T13:24:05.026Z,55.10
2018-09-27T13:29:08.604Z,57.50
2018-09-27T13:34:12.560Z,58.10
2018-09-27T13:39:16.174Z,57.20
2018-09-27T13:44:19.806Z,56.40
2018-09-27T13:49:28.961Z,55.70
2018-09-27T13:54:34.878Z,60.10
2018-09-27T13:59:43.390Z,56.20
2018-09-27T14:04:50.155Z,54.80
2018-09-27T14:09:54.011Z,55.70
2018-09-27T14:14:57.762Z,55.80
2018-09-27T14:20:01.453Z,55.30
2018-09-27T14:25:05.173Z,57.60
2018-09-27T14:30:08.725Z,56.10
2018-09-27T14:35:12.295Z,53.90
2018-09-27T14:40:15.838Z,55.00
2018-09-27T14:45:19.555Z,54.10
2018-09-27T14:50:23.256Z,53.90
2018-09-27T14:55:26.767Z,51.00
2018-09-27T15:00:30.400Z,50.90
2018-09-27T15:05:33.989Z,48.70
2018-09-27T15:10:38.398Z,45.20
2018-09-27T15:15:43.991Z,43.00
2018-09-27T15:20:47.556Z,45.30
2018-09-27T15:25:51.993Z,45.70
2018-09-27T15:30:55.666Z,47.00
2018-09-27T15:35:59.612Z,47.10
2018-09-27T15:41:08.691Z,47.90
2018-09-27T15:46:12.292Z,48.70
2018-09-27T15:51:16.037Z,48.40
2018-09-27T15:56:19.620Z,49.40
2018-09-27T16:01:23.307Z,50.70
2018-09-27T16:06:26.960Z,51.10
2018-09-27T16:11:30.616Z,52.10
2018-09-27T16:16:34.297Z,53.30
2018-09-27T16:21:37.885Z,54.80
2018-09-27T16:26:41.550Z,58.30
2018-09-27T16:31:46.436Z,60.80
2018-09-27T16:36:50.241Z,61.90
2018-09-27T16:41:54.898Z,63.70
2018-09-27T16:46:58.536Z,67.00
2018-09-27T16:52:17.647Z,68.50
2018-09-27T16:57:21.507Z,69.30
2018-09-27T17:02:25.445Z,73.90
2018-09-27T17:07:30.138Z,75.30
2018-09-27T17:12:37.381Z,77.00
2018-09-27T17:17:42.410Z,78.90
2018-09-27T17:22:46.792Z,79.00
2018-09-27T17:27:51.801Z,80.50
2018-09-27T17:32:57.731Z,80.90
2018-09-27T17:38:01.568Z,82.00
2018-09-27T17:43:07.197Z,81.70
2018-09-27T17:48:12.953Z,83.80
2018-09-27T17:53:16.995Z,83.40
2018-09-27T17:58:21.664Z,85.40
2018-09-27T18:03:26.573Z,85.70
2018-09-27T18:08:30.416Z,88.10
2018-09-27T18:13:34.363Z,89.50
2018-09-27T18:18:38.207Z,88.20
2018-09-27T18:23:42.167Z,89.50
2018-09-27T18:28:46.363Z,90.40
2018-09-27T18:33:51.049Z,90.30
2018-09-27T18:38:54.626Z,90.20
2018-09-27T18:44:01.646Z,90.70
2018-09-27T18:49:05.381Z,91.10
2018-09-27T18:54:09.076Z,90.50
2018-09-27T18:59:14.975Z,91.00
2018-09-27T19:04:19.110Z,91.50
2018-09-27T19:09:22.966Z,91.10
2018-09-27T19:14:26.994Z,92.00
2018-09-27T19:19:30.836Z,92.10
2018-09-27T19:24:36.456Z,92.90
2018-09-27T19:29:40.259Z,92.40
2018-09-27T19:34:44.035Z,92.60
2018-09-27T19:39:47.847Z,92.80
2018-09-27T19:44:51.547Z,93.80
2018-09-27T19:49:55.140Z,94.10
2018-09-27T19:54:58.895Z,94.50
2018-09-27T20:00:04.834Z,94.90
2018-09-27T20:05:09.339Z,94.90
2018-09-27T20:10:13.887Z,94.30
2018-09-27T20:15:17.636Z,94.50
2018-09-27T20:20:21.291Z,94.90
2018-09-27T20:25:24.986Z,95.10
2018-09-27T20:30:30.554Z,96.00
2018-09-27T20:35:34.160Z,96.20
2018-09-27T20:40:40.092Z,96.40
2018-09-27T20:45:43.703Z,97.20
2018-09-27T20:50:48.418Z,96.80
2018-09-27T20:55:53.981Z,96.90
2018-09-27T21:00:57.634Z,95.50
2018-09-27T21:06:01.332Z,94.40
2018-09-27T21:11:05.926Z,95.80
2018-09-27T21:16:09.598Z,96.40
2018-09-27T21:21:16.654Z,96.00
2018-09-27T21:26:20.284Z,96.10
2018-09-27T21:31:23.890Z,96.40
2018-09-27T21:36:27.546Z,96.10
2018-09-27T21:41:32.262Z,96.40
2018-09-27T21:46:36.923Z,96.60
2018-09-27T21:51:40.671Z,96.70
2018-09-27T21:56:44.312Z,96.50
2018-09-27T22:01:48.946Z,96.60
2018-09-27T22:06:52.690Z,98.10
2018-09-27T22:11:56.380Z,98.30
2018-09-27T22:17:00.173Z,98.20
2018-09-27T22:22:03.851Z,96.10
2018-09-27T22:27:07.514Z,97.20
2018-09-27T22:32:12.176Z,96.70
2018-09-27T22:37:15.895Z,97.40
2018-09-27T22:42:19.506Z,95.30
2018-09-27T22:47:24.385Z,97.00
2018-09-27T22:52:28.047Z,97.60
2018-09-27T23:02:36.135Z,97.00
2018-09-27T23:07:39.864Z,98.20
2018-09-27T23:12:43.462Z,99.00
2018-09-27T23:17:47.523Z,98.10
2018-09-27T23:22:52.254Z,97.90
2018-09-27T23:27:55.868Z,98.30
2018-09-27T23:32:59.494Z,97.90
2018-09-27T23:38:03.070Z,98.20
2018-09-27T23:43:06.734Z,98.40
2018-09-27T23:48:10.578Z,98.20
2018-09-27T23:53:14.225Z,98.70
2018-09-27T23:58:18.855Z,98.80
